Pagrindinis puslapis
METAR-TAF:

METAR-TAF

Oro uostai :

Dar es Salamas, Tanzanija

platuma: 06-52S, ilguma: 039-12E, Aukštis: 55 m

Dabartinis oras

Ataskaita buvo paskelbta 3 valandos ir 3 minutes, ne 19:00 UTC
Vėjas 10 kt iš Rytų/Šiaurės Rytų
Temperatūra 27°C
Drėgmė 89%
Slėgis 1012 hPa
Matomumas 10 km arba daugiau
Išsisklaidę debesys ne aukštis 1100 ft

METAR: HTDA 261900Z 06010KT 9999 SCT011 27/25 Q1012 NOSIG

Laikas: 01:03 (22:03 UTC)

Prognozė

Ataskaita buvo paskelbta 5 valandos ir 3 minutes, ne 17:00 UTC
Prognozė galioja nuo 26 metu 12 UTC su 27 metu 24 UTC
Vėjas 10 kt iš Rytų/Šiaurės Rytų
Matomumas 10 km arba daugiau
Išsisklaidę debesys ne aukštis 1300 ft
Laikinai
nuo 27 metu 09 UTC su 27 metu 15 UTC
Su prošvaistėmis ne aukštis 1800 ft
Mažai debesys ne aukštis 1900 ft, Liūtiniai kamuoliniai debesys.
lietus

TAF: HTDA 261700Z 2612/2724 06010KT 9999 SCT013 TEMPO 2709/2715 SHRA BKN018 FEW019CB

Orai ataskaitas ir orų prognozės (METAR, TAF).

turimą stotys yra geltonos ir raudonos taškus žemėlapyje.

Perkelti pele per norėdami pamatyti stoties vardą.

Tada spustelėkite, norėdami matyti oro stebėjimo ir prognozės.

Norėdami pakeisti žemėlapį: spustelėkite ant žalios mygtukų su juodo kryžiaus žemyn,; žalią mygtuką su brūkšneliu, jei norite nutolinti; arba žalių rodyklių gretimoms žemėlapius.


METAR-TAF: